createdAt,value
2017-08-23T00:04:17.108Z,15.63
2017-08-23T00:09:19.487Z,15.68
2017-08-23T00:14:21.866Z,15.62
2017-08-23T00:19:24.242Z,15.65
2017-08-23T00:24:26.645Z,15.69
2017-08-23T00:29:28.864Z,15.69
2017-08-23T00:34:31.136Z,15.52
2017-08-23T00:39:33.410Z,15.41
2017-08-23T00:44:35.889Z,15.33
2017-08-23T00:49:38.298Z,15.27
2017-08-23T00:54:40.681Z,15.40
2017-08-23T00:59:43.026Z,15.15
2017-08-23T01:04:45.198Z,14.94
2017-08-23T01:09:47.449Z,15.05
2017-08-23T01:14:49.644Z,15.10
2017-08-23T01:19:52.063Z,14.96
2017-08-23T01:24:54.389Z,14.88
2017-08-23T01:29:56.692Z,14.75
2017-08-23T01:34:59.090Z,14.69
2017-08-23T01:40:01.364Z,14.94
2017-08-23T01:45:03.516Z,14.80
2017-08-23T01:50:05.844Z,14.72
2017-08-23T01:55:08.113Z,14.71
2017-08-23T02:00:10.435Z,14.93
2017-08-23T02:05:12.860Z,14.98
2017-08-23T02:10:15.069Z,14.86
2017-08-23T02:15:17.166Z,14.89
2017-08-23T02:20:19.390Z,14.76
2017-08-23T02:25:22.279Z,14.84
2017-08-23T02:30:24.584Z,14.76
2017-08-23T02:35:26.904Z,14.54
2017-08-23T02:40:29.135Z,14.50
2017-08-23T02:45:31.777Z,14.40
2017-08-23T02:50:33.957Z,14.36
2017-08-23T02:55:36.194Z,14.43
2017-08-23T03:00:38.598Z,14.22
2017-08-23T03:05:40.960Z,14.19
2017-08-23T03:10:43.364Z,14.21
2017-08-23T03:15:45.813Z,14.19
2017-08-23T03:20:48.367Z,14.08
2017-08-23T03:25:50.927Z,14.04
2017-08-23T03:30:53.632Z,14.18
2017-08-23T03:35:56.176Z,14.22
2017-08-23T03:40:58.744Z,14.20
2017-08-23T03:46:01.035Z,14.16
2017-08-23T03:51:03.518Z,14.15
2017-08-23T03:56:07.774Z,14.00
2017-08-23T04:01:10.473Z,14.03
2017-08-23T04:06:15.888Z,14.06
2017-08-23T04:11:19.108Z,14.02
2017-08-23T04:16:22.035Z,14.00
2017-08-23T04:21:25.203Z,13.94
2017-08-23T04:26:28.011Z,13.87
2017-08-23T04:31:31.880Z,13.81
2017-08-23T04:36:33.828Z,13.76
2017-08-23T04:41:36.126Z,13.71
2017-08-23T04:46:38.501Z,13.86
2017-08-23T04:51:40.633Z,13.88
2017-08-23T04:56:43.648Z,14.02
2017-08-23T05:01:45.932Z,14.12
2017-08-23T05:06:48.213Z,14.18
2017-08-23T05:11:50.513Z,14.29
2017-08-23T05:16:53.125Z,14.47
2017-08-23T05:21:55.465Z,14.74
2017-08-23T05:26:57.836Z,14.97
2017-08-23T05:32:00.140Z,15.17
2017-08-23T05:37:02.421Z,15.39
2017-08-23T05:42:04.675Z,15.66
2017-08-23T05:47:06.867Z,15.88
2017-08-23T05:52:09.602Z,16.08
2017-08-23T05:57:11.835Z,16.35
2017-08-23T06:02:14.057Z,16.46
2017-08-23T06:07:16.446Z,16.70
2017-08-23T06:12:19.328Z,16.64
2017-08-23T06:17:21.596Z,17.08
2017-08-23T06:22:23.982Z,17.25
2017-08-23T06:27:26.276Z,17.32
2017-08-23T06:32:28.685Z,17.55
2017-08-23T06:37:31.109Z,17.73
2017-08-23T06:42:33.500Z,17.94
2017-08-23T06:47:35.892Z,18.20
2017-08-23T06:52:42.009Z,18.31
2017-08-23T06:57:46.327Z,18.23
2017-08-23T07:02:49.175Z,18.30
2017-08-23T07:07:51.653Z,18.59
2017-08-23T07:12:53.993Z,18.75
2017-08-23T07:17:56.426Z,18.82
2017-08-23T07:23:00.007Z,18.99
2017-08-23T07:28:02.384Z,19.34
2017-08-23T07:33:04.554Z,19.60
2017-08-23T07:38:07.099Z,19.63
2017-08-23T07:43:09.681Z,19.97
2017-08-23T07:48:12.809Z,20.21
2017-08-23T07:53:16.217Z,20.31
2017-08-23T07:58:19.795Z,20.33
2017-08-23T08:03:23.153Z,20.50
2017-08-23T08:08:26.057Z,20.58
2017-08-23T08:13:29.292Z,20.65
2017-08-23T08:18:31.987Z,21.24
2017-08-23T08:23:34.278Z,21.39
2017-08-23T08:28:37.704Z,21.31
2017-08-23T08:33:41.029Z,21.47
2017-08-23T08:38:43.892Z,21.60
2017-08-23T08:43:46.926Z,21.79
2017-08-23T08:48:49.900Z,22.03
2017-08-23T08:53:53.450Z,22.20
2017-08-23T08:58:55.815Z,22.24
2017-08-23T09:03:58.278Z,22.24
2017-08-23T09:09:00.574Z,22.40
2017-08-23T09:14:02.883Z,22.23
2017-08-23T09:19:10.556Z,22.51
2017-08-23T09:24:14.686Z,22.32
2017-08-23T09:29:19.329Z,22.33
2017-08-23T09:34:24.534Z,22.51
2017-08-23T09:39:26.846Z,22.45
2017-08-23T09:44:29.460Z,22.61
2017-08-23T09:49:31.495Z,22.94
2017-08-23T09:54:33.724Z,23.19
2017-08-23T09:59:35.921Z,23.17
2017-08-23T10:04:38.103Z,23.41
2017-08-23T10:09:40.431Z,23.28
2017-08-23T10:14:42.683Z,23.15
2017-08-23T10:19:45.115Z,23.38
2017-08-23T10:24:47.545Z,23.35
2017-08-23T10:29:49.869Z,23.75
2017-08-23T10:34:52.193Z,24.02
2017-08-23T10:39:54.538Z,24.22
2017-08-23T10:44:57.827Z,24.19
2017-08-23T10:50:00.066Z,24.27
2017-08-23T10:55:02.390Z,24.42
2017-08-23T11:00:04.565Z,24.54
2017-08-23T11:05:06.983Z,24.30
2017-08-23T11:10:09.206Z,24.35
2017-08-23T11:15:11.383Z,24.44
2017-08-23T11:20:13.744Z,24.69
2017-08-23T11:25:16.056Z,24.71
2017-08-23T11:30:18.375Z,25.02
2017-08-23T11:35:20.729Z,25.09
2017-08-23T11:40:23.013Z,25.22
2017-08-23T11:45:25.205Z,25.26
2017-08-23T11:50:27.352Z,25.33
2017-08-23T11:55:29.741Z,25.04
2017-08-23T12:00:32.038Z,25.80
2017-08-23T12:05:34.375Z,25.69
2017-08-23T12:10:36.560Z,25.78
2017-08-23T12:15:38.904Z,26.01
2017-08-23T12:20:41.253Z,26.38
2017-08-23T12:25:43.554Z,26.49
2017-08-23T12:30:45.905Z,26.46
2017-08-23T12:35:48.310Z,25.78
2017-08-23T12:40:50.494Z,25.75
2017-08-23T12:45:52.683Z,26.05
2017-08-23T12:50:55.055Z,26.29
2017-08-23T12:55:57.716Z,26.51
2017-08-23T13:00:59.917Z,26.14
2017-08-23T13:06:02.227Z,25.95
2017-08-23T13:11:04.652Z,26.12
2017-08-23T13:16:06.919Z,26.11
2017-08-23T13:21:09.681Z,25.98
2017-08-23T13:26:13.402Z,25.99
2017-08-23T13:31:15.679Z,26.06
2017-08-23T13:36:17.999Z,26.28
2017-08-23T13:41:20.293Z,26.24
2017-08-23T13:46:22.829Z,26.29
2017-08-23T13:51:29.177Z,26.44
2017-08-23T13:56:36.144Z,26.47
2017-08-23T14:01:38.574Z,26.89
2017-08-23T14:06:41.529Z,26.70
2017-08-23T14:11:43.918Z,26.54
2017-08-23T14:16:46.681Z,26.82
2017-08-23T14:21:52.375Z,26.63
2017-08-23T14:26:57.422Z,27.03
2017-08-23T14:32:04.056Z,27.20
2017-08-23T14:37:10.774Z,27.15
2017-08-23T14:42:17.179Z,27.51
2017-08-23T14:47:23.684Z,27.37
2017-08-23T14:52:25.963Z,27.36
2017-08-23T14:57:28.594Z,27.05
2017-08-23T15:02:32.335Z,26.96
2017-08-23T15:07:35.112Z,27.10
2017-08-23T15:12:40.227Z,27.52
2017-08-23T15:17:42.552Z,27.18
2017-08-23T15:22:47.473Z,27.06
2017-08-23T15:27:50.031Z,27.23
2017-08-23T15:32:52.632Z,26.87
2017-08-23T15:37:54.893Z,26.81
2017-08-23T15:42:57.358Z,27.16
2017-08-23T15:47:59.717Z,27.27
2017-08-23T15:53:02.816Z,27.38
2017-08-23T15:58:05.525Z,27.56
2017-08-23T16:03:08.217Z,27.01
2017-08-23T16:08:10.373Z,26.77
2017-08-23T16:13:12.538Z,26.73
2017-08-23T16:18:15.003Z,26.84
2017-08-23T16:23:32.119Z,27.14
2017-08-23T16:28:34.248Z,26.75
2017-08-23T16:33:36.733Z,26.72
2017-08-23T16:38:38.895Z,26.91
2017-08-23T16:43:41.205Z,26.72
2017-08-23T16:48:44.460Z,26.54
2017-08-23T16:53:46.931Z,26.46
2017-08-23T16:58:48.986Z,25.99
2017-08-23T17:03:51.241Z,25.87
2017-08-23T17:08:53.395Z,25.82
2017-08-23T17:13:55.426Z,25.55
2017-08-23T17:18:57.906Z,25.35
2017-08-23T17:24:00.096Z,25.08
2017-08-23T17:29:03.364Z,24.94
2017-08-23T17:34:06.403Z,24.74
2017-08-23T17:39:08.536Z,24.60
2017-08-23T17:44:10.625Z,24.30
2017-08-23T17:49:13.075Z,24.42
2017-08-23T17:54:16.456Z,24.28
2017-08-23T17:59:18.793Z,24.12
2017-08-23T18:04:22.017Z,24.04
2017-08-23T18:09:26.704Z,24.00
2017-08-23T18:14:33.086Z,23.86
2017-08-23T18:19:35.607Z,23.85
2017-08-23T18:24:37.686Z,23.79
2017-08-23T18:29:40.256Z,23.52
2017-08-23T18:34:42.263Z,23.43
2017-08-23T18:39:44.199Z,23.33
2017-08-23T18:44:46.183Z,23.42
2017-08-23T18:49:48.821Z,23.27
2017-08-23T18:54:56.414Z,23.19
2017-08-23T18:59:58.748Z,23.26
2017-08-23T19:05:03.780Z,23.06
2017-08-23T19:10:10.653Z,22.82
2017-08-23T19:15:14.260Z,22.94
2017-08-23T19:20:19.966Z,22.93
2017-08-23T19:25:25.337Z,22.92
2017-08-23T19:30:29.412Z,22.62
2017-08-23T19:35:32.365Z,22.72
2017-08-23T19:40:36.497Z,22.60
2017-08-23T19:45:39.974Z,22.74
2017-08-23T19:50:42.652Z,22.71
2017-08-23T19:55:49.697Z,22.50
2017-08-23T20:00:53.585Z,22.35
2017-08-23T20:05:56.307Z,22.32
2017-08-23T20:10:59.199Z,22.22
2017-08-23T20:16:06.348Z,22.07
2017-08-23T20:21:15.848Z,22.03
2017-08-23T20:26:20.954Z,21.93
2017-08-23T20:31:23.734Z,21.88
2017-08-23T20:36:26.738Z,22.03
2017-08-23T20:41:32.513Z,22.02
2017-08-23T20:46:40.270Z,21.74
2017-08-23T20:51:45.430Z,21.77
2017-08-23T20:56:49.458Z,21.76
2017-08-23T21:01:51.766Z,21.68
2017-08-23T21:06:54.126Z,21.66
2017-08-23T21:11:56.449Z,21.50
2017-08-23T21:16:58.881Z,21.37
2017-08-23T21:22:00.837Z,21.48
2017-08-23T21:27:02.768Z,21.43
2017-08-23T21:32:05.326Z,21.56
2017-08-23T21:37:07.286Z,21.64
2017-08-23T21:42:09.232Z,21.71
2017-08-23T21:47:11.157Z,21.79
2017-08-23T21:52:13.104Z,21.80
2017-08-23T21:57:15.101Z,21.70
2017-08-23T22:02:17.123Z,21.67
2017-08-23T22:07:19.058Z,21.56
2017-08-23T22:12:21.075Z,21.66
2017-08-23T22:17:23.108Z,21.66
2017-08-23T22:22:25.034Z,21.89
2017-08-23T22:27:26.990Z,22.03
2017-08-23T22:32:28.951Z,22.12
2017-08-23T22:37:30.871Z,21.99
2017-08-23T22:42:32.838Z,21.88
2017-08-23T22:47:34.846Z,21.86
2017-08-23T22:52:36.782Z,21.75
2017-08-23T22:57:39.122Z,21.54
2017-08-23T23:02:41.646Z,21.51
2017-08-23T23:07:44.267Z,21.47
2017-08-23T23:12:46.962Z,21.33
2017-08-23T23:17:49.610Z,21.21
2017-08-23T23:22:51.541Z,21.21
2017-08-23T23:27:53.467Z,21.22
2017-08-23T23:32:55.397Z,21.11
2017-08-23T23:37:57.939Z,21.02
2017-08-23T23:42:59.843Z,20.85
2017-08-23T23:48:01.750Z,20.87
2017-08-23T23:53:03.704Z,20.81
2017-08-23T23:58:06.079Z,20.70
